Mullinville, Kansas
Current Conditions -  °F | °C
As of 8:52 AM on Friday 24 Oct 2014 (Local Time) from KDDC Reporting Station
Haze Haze  
Wind Chill: 56°   Ceiling: Unl
Heat Index: 56°   Visibility: 4mi
Dew Point: 54°   Wind: 8mph
Humidity: 93%   Direction: 210°SSW
Pressure: 30.08"   Gusts: NA
Location:  37.59°N, 99.48°W
Report Text: KDDC 241352Z AUTO 21007KT 4SM BR CLR 13/12 A3008 RMK AO2 SLP172 T01330122
Loading
Personal Weather Stations






























Interactive Weather Map
Tropical Storm Tracking
New forecast layout! Learn more

10-Day Weather Forecast

Advertisements
Track Severe Weather on mobile